createdAt,value
2022-07-26T00:00:51.165Z,14.38
2022-07-26T00:03:18.440Z,13.55
2022-07-26T00:05:45.817Z,15.95
2022-07-26T00:08:13.090Z,12.65
2022-07-26T00:10:46.181Z,11.88
2022-07-26T00:13:13.500Z,14.80
2022-07-26T00:15:40.702Z,15.77
2022-07-26T00:18:11.608Z,12.18
2022-07-26T00:20:39.989Z,11.52
2022-07-26T00:23:09.147Z,15.95
2022-07-26T00:25:36.615Z,13.70
2022-07-26T00:28:04.544Z,12.32
2022-07-26T00:30:32.045Z,12.52
2022-07-26T00:32:59.451Z,12.32
2022-07-26T00:35:26.922Z,8.82
2022-07-26T00:37:54.090Z,9.93
2022-07-26T00:40:21.630Z,9.70
2022-07-26T00:42:48.903Z,11.18
2022-07-26T00:45:17.288Z,13.07
2022-07-26T00:47:44.855Z,9.93
2022-07-26T00:50:15.284Z,12.75
2022-07-26T00:52:51.636Z,9.20
2022-07-26T00:55:19.172Z,10.68
2022-07-26T00:57:46.509Z,6.10
2022-07-26T01:00:17.782Z,5.30
2022-07-26T01:02:45.744Z,10.95
2022-07-26T01:05:13.584Z,8.07
2022-07-26T01:07:41.377Z,9.35
2022-07-26T01:10:13.865Z,9.88
2022-07-26T01:12:42.863Z,12.07
2022-07-26T01:15:11.812Z,8.05
2022-07-26T01:17:39.297Z,7.32
2022-07-26T01:20:09.954Z,6.97
2022-07-26T01:22:37.452Z,9.40
2022-07-26T01:25:05.472Z,8.43
2022-07-26T01:27:34.495Z,11.45
2022-07-26T01:30:01.906Z,9.30
2022-07-26T01:32:30.885Z,9.00
2022-07-26T01:34:58.108Z,10.57
2022-07-26T01:37:25.364Z,10.27
2022-07-26T01:39:52.557Z,10.27
2022-07-26T01:42:19.791Z,8.98
2022-07-26T01:44:46.975Z,9.00
2022-07-26T01:47:14.398Z,10.93
2022-07-26T01:49:41.776Z,8.13
2022-07-26T01:52:08.952Z,15.18
2022-07-26T01:54:36.157Z,8.52
2022-07-26T01:57:04.039Z,8.63
2022-07-26T01:59:31.265Z,10.02
2022-07-26T02:02:00.805Z,10.10
2022-07-26T02:04:46.957Z,6.80
2022-07-26T02:07:14.362Z,10.05
2022-07-26T02:09:41.591Z,13.40
2022-07-26T02:12:09.131Z,8.95
2022-07-26T02:14:36.483Z,9.38
2022-07-26T02:17:03.999Z,8.95
2022-07-26T02:19:31.900Z,12.55
2022-07-26T02:21:59.571Z,11.45
2022-07-26T02:24:29.128Z,14.07
2022-07-26T02:26:58.192Z,9.02
2022-07-26T02:29:26.323Z,8.35
2022-07-26T02:31:54.826Z,10.35
2022-07-26T02:34:22.071Z,9.80
2022-07-26T02:36:49.399Z,8.57
2022-07-26T02:39:16.993Z,10.77
2022-07-26T02:41:44.344Z,9.25
2022-07-26T02:44:12.110Z,13.73
2022-07-26T02:46:39.635Z,7.43
2022-07-26T02:49:07.002Z,10.43
2022-07-26T02:51:34.382Z,8.90
2022-07-26T02:54:01.635Z,10.35
2022-07-26T02:56:29.304Z,9.68
2022-07-26T02:58:56.682Z,9.73
2022-07-26T03:01:24.062Z,9.63
2022-07-26T03:03:51.622Z,11.05
2022-07-26T03:06:20.068Z,10.80
2022-07-26T03:08:48.505Z,9.90
2022-07-26T03:11:16.099Z,8.90
2022-07-26T03:13:43.507Z,9.85
2022-07-26T03:16:11.267Z,9.18
2022-07-26T03:18:39.045Z,11.35
2022-07-26T03:21:06.676Z,10.40
2022-07-26T03:23:34.995Z,8.27
2022-07-26T03:26:03.128Z,10.48
2022-07-26T03:28:34.185Z,9.90
2022-07-26T03:31:01.566Z,12.93
2022-07-26T03:33:29.694Z,16.10
2022-07-26T03:35:57.012Z,11.30
2022-07-26T03:38:24.881Z,13.60
2022-07-26T03:40:52.432Z,12.50
2022-07-26T03:43:23.045Z,9.40
2022-07-26T03:45:51.209Z,13.10
2022-07-26T03:48:22.218Z,11.38
2022-07-26T03:50:49.744Z,9.63
2022-07-26T03:53:18.364Z,11.10
2022-07-26T03:56:04.668Z,8.55
2022-07-26T03:58:32.043Z,13.27
2022-07-26T04:00:59.245Z,8.95
2022-07-26T04:03:26.517Z,13.35
2022-07-26T04:05:55.086Z,12.10
2022-07-26T04:08:23.357Z,8.13
2022-07-26T04:10:53.669Z,11.05
2022-07-26T04:13:21.021Z,9.23
2022-07-26T04:15:48.195Z,13.35
2022-07-26T04:18:15.542Z,13.35
2022-07-26T04:20:43.570Z,13.15
2022-07-26T04:23:12.318Z,11.73
2022-07-26T04:25:41.682Z,11.65
2022-07-26T04:28:10.055Z,9.82
2022-07-26T04:30:38.039Z,11.32
2022-07-26T04:33:06.532Z,11.55
2022-07-26T04:35:34.197Z,14.63
2022-07-26T04:38:04.833Z,13.30
2022-07-26T04:40:33.716Z,12.23
2022-07-26T04:43:02.427Z,13.23
2022-07-26T04:45:34.823Z,12.20
2022-07-26T04:48:02.117Z,14.43
2022-07-26T04:50:29.660Z,14.15
2022-07-26T04:52:57.062Z,11.93
2022-07-26T04:55:24.365Z,14.05
2022-07-26T04:57:52.089Z,13.70
2022-07-26T05:00:24.201Z,8.70
2022-07-26T05:02:55.034Z,10.73
2022-07-26T05:05:23.461Z,12.32
2022-07-26T05:07:53.756Z,12.60
2022-07-26T05:10:22.537Z,11.00
2022-07-26T05:12:49.771Z,12.30
2022-07-26T05:15:17.098Z,18.15
2022-07-26T05:17:44.427Z,14.18
2022-07-26T05:20:15.195Z,10.32
2022-07-26T05:22:42.796Z,10.05
2022-07-26T05:25:10.354Z,11.57
2022-07-26T05:27:39.082Z,11.50
2022-07-26T05:30:06.806Z,12.68
2022-07-26T05:32:34.153Z,12.55
2022-07-26T05:35:01.433Z,10.98
2022-07-26T05:37:30.581Z,10.55
2022-07-26T05:39:57.745Z,12.93
2022-07-26T05:42:25.865Z,16.13
2022-07-26T05:44:55.997Z,10.50
2022-07-26T05:47:23.618Z,11.73
2022-07-26T05:49:50.778Z,9.20
2022-07-26T05:52:18.012Z,8.85
2022-07-26T05:54:45.503Z,10.75
2022-07-26T05:57:12.840Z,14.60
2022-07-26T05:59:40.117Z,13.57
2022-07-26T06:02:08.522Z,15.50
2022-07-26T06:04:36.496Z,11.95
2022-07-26T06:07:03.859Z,16.05
2022-07-26T06:09:32.654Z,11.63
2022-07-26T06:11:59.874Z,16.52
2022-07-26T06:14:27.159Z,10.93
2022-07-26T06:16:55.553Z,11.02
2022-07-26T06:19:22.843Z,10.93
2022-07-26T06:21:50.128Z,10.07
2022-07-26T06:24:17.429Z,12.02
2022-07-26T06:26:46.462Z,9.88
2022-07-26T06:29:14.054Z,14.43
2022-07-26T06:31:41.403Z,9.45
2022-07-26T06:34:10.082Z,14.35
2022-07-26T06:36:37.663Z,12.32
2022-07-26T06:39:05.048Z,9.73
2022-07-26T06:41:32.316Z,10.13
2022-07-26T06:43:59.463Z,12.18
2022-07-26T06:46:26.858Z,16.73
2022-07-26T06:48:56.995Z,9.85
2022-07-26T06:51:24.673Z,12.65
2022-07-26T06:53:51.910Z,11.40
2022-07-26T06:56:19.733Z,10.02
2022-07-26T06:58:47.207Z,12.50
2022-07-26T07:01:57.524Z,12.25
2022-07-26T07:04:02.372Z,11.48
2022-07-26T07:06:29.701Z,16.88
2022-07-26T07:08:56.871Z,16.75
2022-07-26T07:11:24.541Z,14.52
2022-07-26T07:13:53.213Z,15.95
2022-07-26T07:16:20.425Z,13.68
2022-07-26T07:18:47.761Z,20.60
2022-07-26T07:21:15.031Z,18.80
2022-07-26T07:23:42.323Z,22.00
2022-07-26T07:26:09.584Z,18.92
2022-07-26T07:28:39.445Z,12.13
2022-07-26T07:31:06.978Z,22.27
2022-07-26T07:33:43.829Z,15.25
2022-07-26T07:36:21.557Z,18.20
2022-07-26T07:38:49.370Z,24.40
2022-07-26T07:41:18.806Z,12.68
2022-07-26T07:43:46.281Z,14.10
2022-07-26T07:46:13.916Z,16.50
2022-07-26T07:48:46.972Z,14.63
2022-07-26T07:51:15.084Z,13.63
2022-07-26T07:53:43.374Z,14.13
2022-07-26T07:56:24.409Z,15.30
2022-07-26T07:58:52.295Z,16.33
2022-07-26T08:01:19.887Z,24.02
2022-07-26T08:03:50.183Z,10.75
2022-07-26T08:06:18.544Z,20.85
2022-07-26T08:08:45.818Z,13.68
2022-07-26T08:11:16.167Z,14.50
2022-07-26T08:13:47.711Z,20.55
2022-07-26T08:16:15.536Z,19.13
2022-07-26T08:18:56.140Z,24.27
2022-07-26T08:21:28.349Z,13.32
2022-07-26T08:23:57.741Z,14.13
2022-07-26T08:26:25.186Z,12.82
2022-07-26T08:29:00.169Z,13.40
2022-07-26T08:31:30.670Z,11.43
2022-07-26T08:33:58.241Z,15.85
2022-07-26T08:36:31.846Z,14.65
2022-07-26T08:41:27.319Z,13.88
2022-07-26T08:43:54.605Z,12.35
2022-07-26T08:46:25.929Z,12.40
2022-07-26T08:48:57.845Z,8.85
2022-07-26T08:51:26.673Z,7.07
2022-07-26T08:54:04.277Z,11.48
2022-07-26T08:56:37.189Z,9.88
2022-07-26T08:59:06.390Z,12.43
2022-07-26T09:01:34.189Z,9.55
2022-07-26T09:04:31.009Z,10.52
2022-07-26T09:07:10.465Z,12.20
2022-07-26T09:09:59.180Z,10.82
2022-07-26T09:12:28.454Z,9.63
2022-07-26T09:14:57.094Z,11.13
2022-07-26T09:17:36.796Z,10.93
2022-07-26T09:20:10.276Z,9.13
2022-07-26T09:23:06.170Z,8.53
2022-07-26T09:25:36.544Z,8.05
2022-07-26T09:28:04.964Z,12.93
2022-07-26T09:30:33.026Z,7.97
2022-07-26T09:33:05.932Z,9.18
2022-07-26T09:35:50.787Z,7.28
2022-07-26T09:38:19.454Z,11.48
2022-07-26T09:40:51.184Z,6.72
2022-07-26T09:43:23.672Z,9.30
2022-07-26T09:46:07.066Z,5.82
2022-07-26T09:49:07.138Z,9.40
2022-07-26T09:51:37.802Z,6.05
2022-07-26T09:54:05.157Z,6.22
2022-07-26T09:56:50.011Z,9.13
2022-07-26T09:59:22.917Z,7.60
2022-07-26T10:01:52.115Z,7.43
2022-07-26T10:04:20.650Z,9.18
2022-07-26T10:06:48.590Z,9.43
2022-07-26T10:09:18.482Z,11.43
2022-07-26T10:11:56.509Z,12.40
2022-07-26T10:14:40.507Z,4.65
2022-07-26T10:17:31.655Z,4.32
2022-07-26T10:20:03.876Z,13.20
2022-07-26T10:22:36.063Z,7.03
2022-07-26T10:25:18.434Z,7.15
2022-07-26T10:27:46.949Z,8.93
2022-07-26T10:30:22.573Z,13.02
2022-07-26T10:33:01.692Z,7.65
2022-07-26T10:35:36.339Z,6.07
2022-07-26T10:38:06.499Z,7.38
2022-07-26T10:40:34.022Z,6.85
2022-07-26T10:46:19.014Z,5.05
2022-07-26T10:49:04.571Z,5.60
2022-07-26T10:51:40.544Z,11.23
2022-07-26T10:54:10.525Z,6.00
2022-07-26T10:56:38.669Z,7.97
2022-07-26T10:59:06.459Z,14.13
2022-07-26T11:01:38.804Z,14.25
2022-07-26T11:04:19.253Z,5.97
2022-07-26T11:06:47.888Z,6.55
2022-07-26T11:09:16.041Z,7.97
2022-07-26T11:11:46.315Z,8.35
2022-07-26T11:14:17.334Z,4.93
2022-07-26T11:16:50.420Z,10.00
2022-07-26T11:19:24.382Z,10.68
2022-07-26T11:21:59.670Z,11.88
2022-07-26T11:24:28.243Z,7.57
2022-07-26T11:26:58.195Z,15.38
2022-07-26T11:29:38.261Z,10.73
2022-07-26T11:32:18.143Z,7.15
2022-07-26T11:34:46.347Z,5.68
2022-07-26T11:37:14.052Z,6.93
2022-07-26T11:39:41.468Z,6.80
2022-07-26T11:42:11.584Z,7.22
2022-07-26T11:44:43.088Z,9.90
2022-07-26T11:47:25.252Z,4.60
2022-07-26T11:52:41.430Z,8.23
2022-07-26T11:55:09.431Z,7.90
2022-07-26T11:57:38.170Z,8.85
2022-07-26T12:00:06.327Z,6.93
2022-07-26T12:05:17.205Z,12.35
2022-07-26T12:08:04.306Z,11.45
2022-07-26T12:10:32.094Z,10.23
2022-07-26T12:13:10.500Z,8.63
2022-07-26T12:15:53.255Z,9.38
2022-07-26T12:18:28.580Z,9.13
2022-07-26T12:21:04.935Z,7.00
2022-07-26T12:23:43.878Z,6.13
2022-07-26T12:26:26.147Z,6.57
2022-07-26T12:28:54.777Z,7.15
2022-07-26T12:31:34.226Z,6.55
2022-07-26T12:34:01.615Z,10.27
2022-07-26T12:36:30.309Z,5.93
2022-07-26T12:39:02.183Z,6.10
2022-07-26T12:41:40.254Z,7.85
2022-07-26T12:44:11.989Z,6.38
2022-07-26T12:46:40.262Z,8.52
2022-07-26T12:49:07.612Z,9.07
2022-07-26T12:51:34.973Z,6.57
2022-07-26T12:54:03.433Z,9.55
2022-07-26T12:56:30.818Z,8.90
2022-07-26T12:59:01.675Z,10.35
2022-07-26T13:01:30.524Z,11.35
2022-07-26T13:03:58.155Z,17.48
2022-07-26T13:06:25.517Z,9.02
2022-07-26T13:08:52.746Z,13.95
2022-07-26T13:11:19.966Z,11.43
2022-07-26T13:13:47.189Z,6.97
2022-07-26T13:16:14.517Z,7.68
2022-07-26T13:18:41.728Z,6.35
2022-07-26T13:21:08.957Z,15.00
2022-07-26T13:23:36.288Z,6.32
2022-07-26T13:26:04.416Z,11.10
2022-07-26T13:28:37.127Z,9.43
2022-07-26T13:31:04.549Z,8.55
2022-07-26T13:33:33.151Z,11.52
2022-07-26T13:36:00.814Z,5.65
2022-07-26T13:38:28.968Z,9.23
2022-07-26T13:40:56.511Z,5.35
2022-07-26T13:43:24.635Z,6.97
2022-07-26T13:45:51.939Z,5.22
2022-07-26T13:48:20.724Z,5.15
2022-07-26T13:50:48.911Z,9.35
2022-07-26T13:53:16.494Z,7.47
2022-07-26T13:55:43.713Z,7.10
2022-07-26T13:58:10.903Z,7.40
2022-07-26T14:00:39.975Z,5.35
2022-07-26T14:03:07.549Z,6.72
2022-07-26T14:05:35.629Z,5.28
2022-07-26T14:08:03.029Z,8.02
2022-07-26T14:10:30.239Z,5.05
2022-07-26T14:12:57.705Z,4.97
2022-07-26T14:15:25.170Z,6.63
2022-07-26T14:17:52.863Z,7.95
2022-07-26T14:20:21.458Z,5.25
2022-07-26T14:22:53.448Z,4.03
2022-07-26T14:25:25.451Z,7.85
2022-07-26T14:27:54.709Z,6.10
2022-07-26T14:30:22.710Z,4.18
2022-07-26T14:32:50.710Z,5.00
2022-07-26T14:35:18.266Z,5.35
2022-07-26T14:37:46.155Z,3.88
2022-07-26T14:40:16.143Z,3.47
2022-07-26T14:42:44.280Z,7.63
2022-07-26T14:45:12.559Z,7.45
2022-07-26T14:47:39.827Z,5.78
2022-07-26T14:50:08.798Z,5.25
2022-07-26T14:52:45.964Z,3.83
2022-07-26T14:55:14.503Z,4.18
2022-07-26T14:57:42.002Z,5.72
2022-07-26T15:00:12.214Z,6.22
2022-07-26T15:02:41.380Z,5.68
2022-07-26T15:05:10.921Z,4.18
2022-07-26T15:07:38.704Z,10.82
2022-07-26T15:10:08.122Z,5.25
2022-07-26T15:12:35.780Z,4.57
2022-07-26T15:15:05.146Z,4.05
2022-07-26T15:17:32.596Z,6.15
2022-07-26T15:19:59.784Z,6.68
2022-07-26T15:22:27.060Z,4.05
2022-07-26T15:24:54.437Z,4.35
2022-07-26T15:27:21.810Z,3.88
2022-07-26T15:29:50.711Z,7.35
2022-07-26T15:32:19.777Z,7.57
2022-07-26T15:34:49.156Z,6.78
2022-07-26T15:37:16.499Z,7.93
2022-07-26T15:39:43.766Z,4.30
2022-07-26T15:42:11.138Z,3.33
2022-07-26T15:44:42.616Z,3.35
2022-07-26T15:47:11.239Z,3.83
2022-07-26T15:49:40.283Z,9.85
2022-07-26T15:52:10.582Z,4.47
2022-07-26T15:54:38.185Z,4.45
2022-07-26T15:57:05.576Z,4.05
2022-07-26T15:59:32.798Z,3.47
2022-07-26T16:02:00.480Z,5.63
2022-07-26T16:04:27.847Z,5.95
2022-07-26T16:06:55.246Z,6.72
2022-07-26T16:09:22.483Z,3.65
2022-07-26T16:11:49.857Z,5.18
2022-07-26T16:14:17.440Z,4.18
2022-07-26T16:16:45.467Z,3.72
2022-07-26T16:19:13.441Z,5.57
2022-07-26T16:21:41.501Z,6.40
2022-07-26T16:24:09.003Z,4.70
2022-07-26T16:26:36.632Z,4.25
2022-07-26T16:29:04.725Z,5.65
2022-07-26T16:31:33.123Z,6.10
2022-07-26T16:34:00.714Z,5.28
2022-07-26T16:36:29.316Z,6.70
2022-07-26T16:38:56.605Z,4.85
2022-07-26T16:41:24.474Z,7.22
2022-07-26T16:43:52.011Z,5.50
2022-07-26T16:46:19.345Z,6.38
2022-07-26T16:48:46.613Z,8.10
2022-07-26T16:51:14.129Z,4.97
2022-07-26T16:53:41.663Z,4.03
2022-07-26T16:56:09.537Z,4.93
2022-07-26T16:58:37.746Z,9.82
2022-07-26T17:01:04.981Z,59.50
2022-07-26T17:03:32.248Z,49.03
2022-07-26T17:06:06.087Z,50.67
2022-07-26T17:08:34.094Z,40.72
2022-07-26T17:11:01.509Z,50.78
2022-07-26T17:13:28.804Z,41.63
2022-07-26T17:15:56.073Z,35.17
2022-07-26T17:18:23.414Z,36.30
2022-07-26T17:20:50.877Z,37.88
2022-07-26T17:23:21.284Z,21.65
2022-07-26T17:25:48.625Z,24.48
2022-07-26T17:28:15.898Z,21.80
2022-07-26T17:30:43.191Z,23.27
2022-07-26T17:33:10.707Z,22.95
2022-07-26T17:35:38.019Z,22.25
2022-07-26T17:38:05.305Z,30.98
2022-07-26T17:40:33.820Z,23.95
2022-07-26T17:43:01.213Z,19.35
2022-07-26T17:45:28.582Z,25.55
2022-07-26T17:47:55.843Z,21.13
2022-07-26T17:50:38.874Z,32.22
2022-07-26T17:53:06.586Z,21.20
2022-07-26T17:55:33.952Z,20.63
2022-07-26T17:58:01.239Z,12.68
2022-07-26T18:00:28.838Z,26.35
2022-07-26T18:02:57.472Z,20.17
2022-07-26T18:05:31.709Z,16.65
2022-07-26T18:08:01.569Z,14.48
2022-07-26T18:10:29.229Z,15.75
2022-07-26T18:12:56.486Z,17.92
2022-07-26T18:15:24.055Z,11.90
2022-07-26T18:17:51.427Z,12.57
2022-07-26T18:20:18.819Z,22.38
2022-07-26T18:22:50.453Z,11.85
2022-07-26T18:25:18.202Z,11.35
2022-07-26T18:27:45.580Z,11.65
2022-07-26T18:30:12.920Z,12.32
2022-07-26T18:32:40.232Z,14.15
2022-07-26T18:35:07.782Z,11.73
2022-07-26T18:37:34.975Z,11.45
2022-07-26T18:40:03.446Z,6.47
2022-07-26T18:42:30.714Z,10.98
2022-07-26T18:44:57.992Z,12.48
2022-07-26T18:47:25.344Z,13.43
2022-07-26T18:49:52.623Z,12.48
2022-07-26T18:52:28.932Z,12.88
2022-07-26T18:55:06.997Z,14.20
2022-07-26T18:57:35.998Z,12.13
2022-07-26T19:00:25.452Z,9.30
2022-07-26T19:02:54.149Z,10.10
2022-07-26T19:05:22.872Z,10.15
2022-07-26T19:07:51.318Z,12.40
2022-07-26T19:10:20.165Z,7.78
2022-07-26T19:12:48.516Z,12.55
2022-07-26T19:15:16.634Z,10.88
2022-07-26T19:17:44.265Z,13.02
2022-07-26T19:20:12.366Z,7.13
2022-07-26T19:22:40.370Z,9.18
2022-07-26T19:25:10.481Z,6.20
2022-07-26T19:27:38.804Z,8.38
2022-07-26T19:30:10.861Z,13.13
2022-07-26T19:32:39.227Z,14.30
2022-07-26T19:35:07.349Z,8.27
2022-07-26T19:37:34.701Z,10.70
2022-07-26T19:40:03.742Z,11.27
2022-07-26T19:42:32.366Z,12.77
2022-07-26T19:45:00.165Z,12.98
2022-07-26T19:47:29.737Z,9.07
2022-07-26T19:49:57.662Z,11.75
2022-07-26T19:52:24.997Z,9.02
2022-07-26T19:54:52.256Z,10.23
2022-07-26T19:57:19.881Z,8.93
2022-07-26T19:59:47.806Z,9.80
2022-07-26T20:02:15.207Z,15.65
2022-07-26T20:04:45.865Z,13.20
2022-07-26T20:07:19.350Z,17.88
2022-07-26T20:09:48.687Z,9.63
2022-07-26T20:12:16.516Z,7.38
2022-07-26T20:14:43.982Z,12.07
2022-07-26T20:17:11.990Z,11.38
2022-07-26T20:19:41.052Z,11.98
2022-07-26T20:22:08.860Z,8.07
2022-07-26T20:24:38.121Z,5.80
2022-07-26T20:27:07.047Z,6.50
2022-07-26T20:29:34.350Z,9.70
2022-07-26T20:32:01.797Z,7.80
2022-07-26T20:34:29.038Z,11.13
2022-07-26T20:36:56.415Z,5.40
2022-07-26T20:39:26.157Z,12.40
2022-07-26T20:41:53.862Z,9.27
2022-07-26T20:44:27.959Z,9.15
2022-07-26T20:46:55.980Z,9.10
2022-07-26T20:49:23.230Z,5.95
2022-07-26T20:51:50.470Z,8.13
2022-07-26T20:54:17.904Z,6.07
2022-07-26T20:56:45.189Z,5.93
2022-07-26T20:59:12.814Z,5.18
2022-07-26T21:01:40.302Z,8.68
2022-07-26T21:04:11.977Z,4.40
2022-07-26T21:06:39.284Z,7.38
2022-07-26T21:09:08.871Z,8.40
2022-07-26T21:11:37.970Z,8.48
2022-07-26T21:14:05.335Z,5.78
2022-07-26T21:16:32.858Z,6.25
2022-07-26T21:19:00.778Z,4.97
2022-07-26T21:21:28.075Z,5.90
2022-07-26T21:23:55.405Z,7.55
2022-07-26T21:26:22.769Z,8.32
2022-07-26T21:28:50.019Z,6.63
2022-07-26T21:31:17.214Z,7.65
2022-07-26T21:33:44.992Z,10.05
2022-07-26T21:36:14.322Z,6.68
2022-07-26T21:38:42.098Z,5.57
2022-07-26T21:41:09.482Z,7.55
2022-07-26T21:43:40.616Z,8.38
2022-07-26T21:46:12.409Z,6.25
2022-07-26T21:48:40.812Z,6.35
2022-07-26T21:51:08.173Z,6.13
2022-07-26T21:53:35.474Z,7.28
2022-07-26T21:56:03.091Z,10.60
2022-07-26T21:58:34.535Z,5.95
2022-07-26T22:01:06.651Z,7.20
2022-07-26T22:03:36.574Z,8.77
2022-07-26T22:06:05.084Z,5.43
2022-07-26T22:08:32.343Z,6.18
2022-07-26T22:10:59.596Z,5.90
2022-07-26T22:13:27.169Z,9.52
2022-07-26T22:15:54.495Z,8.23
2022-07-26T22:18:21.803Z,5.65
2022-07-26T22:20:49.896Z,9.35
2022-07-26T22:23:18.781Z,6.35
2022-07-26T22:25:46.295Z,9.13
2022-07-26T22:28:18.465Z,4.78
2022-07-26T22:30:46.465Z,4.30
2022-07-26T22:33:14.111Z,6.53
2022-07-26T22:35:41.483Z,6.03
2022-07-26T22:38:11.051Z,7.03
2022-07-26T22:40:39.702Z,8.50
2022-07-26T22:43:07.570Z,4.10
2022-07-26T22:45:35.110Z,6.63
2022-07-26T22:48:04.173Z,6.22
2022-07-26T22:50:32.193Z,9.43
2022-07-26T22:53:01.017Z,6.72
2022-07-26T22:55:28.958Z,6.47
2022-07-26T22:57:56.316Z,5.55
2022-07-26T23:00:24.088Z,4.38
2022-07-26T23:02:51.590Z,7.55
2022-07-26T23:05:19.452Z,5.03
2022-07-26T23:07:48.073Z,5.70
2022-07-26T23:10:17.081Z,7.93
2022-07-26T23:12:44.777Z,4.80
2022-07-26T23:15:12.552Z,8.20
2022-07-26T23:17:39.962Z,6.22
2022-07-26T23:20:09.001Z,5.18
2022-07-26T23:22:36.446Z,5.25
2022-07-26T23:25:04.626Z,7.80
2022-07-26T23:27:31.883Z,4.10
2022-07-26T23:29:59.107Z,5.18
2022-07-26T23:32:26.445Z,6.18
2022-07-26T23:34:55.199Z,5.82
2022-07-26T23:37:22.559Z,5.50
2022-07-26T23:39:49.749Z,4.75
2022-07-26T23:42:16.948Z,8.07
2022-07-26T23:44:44.098Z,5.15
2022-07-26T23:47:11.449Z,10.05
2022-07-26T23:49:38.698Z,4.93
2022-07-26T23:52:05.998Z,7.20
2022-07-26T23:54:33.222Z,10.40
2022-07-26T23:57:00.594Z,8.80
2022-07-26T23:59:27.801Z,6.05
